Jaffrey, New Hampshire
Current Conditions -  °F | °C
As of 12:52 AM on Sunday 26 Oct 2014 (Local Time) from KAFN Reporting Station
Clear Clear  
Wind Chill: 10°   Ceiling: Unl
Heat Index: 10°   Visibility: 10mi
Dew Point:   Wind: 7mph
Humidity: 80%   Direction: 200°SSW
Pressure: 29.49"   Gusts: NA
Location:  42.81°N, 72.02°W
Report Text: KAFN 260452Z AUTO 20006KT 10SM CLR 10/07 A2949 RMK AO2 SLP993 T01000067 401610017
Loading
Personal Weather Stations






























Interactive Weather Map
Tropical Storm Tracking
New forecast layout! Learn more

10-Day Weather Forecast

Advertisements
Track Severe Weather on mobile